Time;durP1;ratioP1;P1;durP2;ratioP2;P2;SDS_P1;SDS_P2;PMS_P1;PMS_P2;Temp;Humidity;BMP_temperature;BMP_pressure;BME280_temperature;BME280_humidity;BME280_pressure;Samples;Min_cycle;Max_cycle;Signal;HPM_P1;HPM_P2
2021/09/20 00:01:25;;;;;;;0.30;0.20;;;13.70;99.90;;;;;;4993769;28;20182;-65
2021/09/20 00:03:51;;;;;;;0.30;0.20;;;13.80;99.90;;;;;;4993700;28;20536;-65
2021/09/20 00:06:17;;;;;;;0.30;0.20;;;14.00;1.00;;;;;;4993793;28;20206;-63
2021/09/20 00:08:43;;;;;;;0.30;0.20;;;14.20;99.90;;;;;;4993742;28;20202;-62
2021/09/20 00:11:09;;;;;;;0.40;0.20;;;14.00;99.90;;;;;;4993933;28;20789;-63
2021/09/20 00:13:35;;;;;;;0.40;0.20;;;13.90;99.90;;;;;;4993772;28;20176;-64
2021/09/20 00:16:01;;;;;;;0.30;0.20;;;13.80;99.90;;;;;;4993939;28;20661;-64
2021/09/20 00:18:26;;;;;;;0.40;0.23;;;13.90;99.90;;;;;;4993546;28;20430;-63
2021/09/20 00:20:52;;;;;;;0.30;0.20;;;13.90;99.90;;;;;;4994209;28;20189;-63
2021/09/20 00:23:18;;;;;;;0.30;0.10;;;14.00;99.90;;;;;;4997607;28;20211;-63
2021/09/20 00:25:43;;;;;;;0.30;0.20;;;14.10;99.90;;;;;;4997686;28;20585;-64
2021/09/20 00:28:09;;;;;;;0.30;0.10;;;14.10;99.90;;;;;;4997082;28;20676;-64
2021/09/20 00:30:37;;;;;;;0.30;0.17;;;14.10;99.90;;;;;;4997278;28;20186;-64
2021/09/20 00:33:03;;;;;;;0.70;0.40;;;14.10;99.90;;;;;;4997307;28;20211;-64
2021/09/20 00:35:28;;;;;;;0.30;0.20;;;14.00;99.90;;;;;;4997178;28;20230;-63
2021/09/20 00:37:54;;;;;;;0.30;0.20;;;13.90;99.90;;;;;;4996242;28;20175;-66
2021/09/20 00:40:20;;;;;;;0.30;0.20;;;13.80;99.90;;;;;;4997160;28;20183;-66
2021/09/20 00:42:45;;;;;;;0.30;0.10;;;13.80;99.90;;;;;;4997162;28;20195;-65
2021/09/20 00:45:11;;;;;;;0.30;0.10;;;13.90;1.00;;;;;;4995799;28;20213;-65
2021/09/20 00:47:37;;;;;;;0.40;0.20;;;13.70;99.90;;;;;;4996744;28;20218;-65
2021/09/20 00:50:03;;;;;;;0.30;0.20;;;13.40;1.00;;;;;;4996580;28;20206;-65
2021/09/20 00:52:29;;;;;;;0.40;0.25;;;13.60;1.00;;;;;;4996069;28;20211;-65
2021/09/20 00:54:54;;;;;;;0.30;0.20;;;13.50;1.00;;;;;;4996951;28;20313;-64
2021/09/20 00:57:20;;;;;;;0.40;0.20;;;13.60;1.00;;;;;;4996792;28;20274;-65
2021/09/20 00:59:46;;;;;;;0.30;0.20;;;13.60;1.00;;;;;;4996697;28;20179;-65
2021/09/20 01:02:12;;;;;;;0.30;0.20;;;13.60;1.00;;;;;;4996801;28;20201;-64
2021/09/20 01:04:37;;;;;;;0.30;0.20;;;13.70;1.00;;;;;;4996629;28;20517;-63
2021/09/20 01:07:03;;;;;;;0.30;0.20;;;13.90;1.00;;;;;;4996510;28;20183;-63
2021/09/20 01:09:29;;;;;;;0.30;0.20;;;14.10;99.90;;;;;;4995366;28;20194;-64
2021/09/20 01:11:55;;;;;;;0.30;0.20;;;13.90;99.90;;;;;;4996370;28;20213;-63
2021/09/20 01:14:21;;;;;;;0.30;0.10;;;14.10;99.90;;;;;;4996265;28;20432;-64
2021/09/20 01:16:46;;;;;;;0.30;0.10;;;14.00;99.90;;;;;;4996124;28;20254;-63
2021/09/20 01:19:12;;;;;;;0.30;0.20;;;14.10;99.90;;;;;;4995201;28;20624;-63
2021/09/20 01:21:37;;;;;;;0.30;0.20;;;14.10;99.90;;;;;;4995299;28;20191;-65
2021/09/20 01:24:04;;;;;;;0.50;0.20;;;14.00;99.90;;;;;;4996426;28;20183;-65
2021/09/20 01:26:29;;;;;;;0.40;0.20;;;13.60;99.90;;;;;;4996014;28;20262;-65
2021/09/20 01:28:55;;;;;;;0.30;0.20;;;13.60;1.00;;;;;;4995841;28;20266;-65
2021/09/20 01:31:20;;;;;;;0.30;0.10;;;13.60;1.00;;;;;;4995810;28;20266;-65
2021/09/20 01:33:46;;;;;;;0.30;0.20;;;13.70;1.00;;;;;;4995293;28;20171;-65
2021/09/20 01:36:12;;;;;;;0.30;0.20;;;13.60;1.00;;;;;;4995911;28;20214;-65
2021/09/20 01:38:37;;;;;;;0.30;0.20;;;13.70;1.00;;;;;;4995754;28;20175;-66
2021/09/20 01:41:03;;;;;;;0.30;0.20;;;13.50;1.00;;;;;;4995765;28;20179;-66
2021/09/20 01:43:28;;;;;;;0.30;0.10;;;13.80;1.00;;;;;;4995776;28;20237;-66
2021/09/20 01:45:54;;;;;;;0.30;0.20;;;13.90;1.00;;;;;;4995537;28;20269;-66
2021/09/20 01:48:20;;;;;;;0.30;0.20;;;14.00;1.00;;;;;;4995269;28;20190;-66
2021/09/20 01:50:46;;;;;;;0.30;0.20;;;14.10;99.90;;;;;;4995567;28;20189;-67
2021/09/20 01:53:12;;;;;;;0.38;0.20;;;14.10;99.90;;;;;;4995434;28;20594;-67
2021/09/20 01:55:37;;;;;;;0.40;0.20;;;14.20;99.90;;;;;;4995578;28;20171;-66
2021/09/20 01:58:03;;;;;;;0.30;0.10;;;13.90;99.90;;;;;;4995364;28;20422;-67
2021/09/20 02:00:28;;;;;;;0.30;0.20;;;13.80;99.90;;;;;;4995239;28;20322;-66
2021/09/20 02:02:54;;;;;;;0.30;0.10;;;13.60;99.90;;;;;;4995782;28;20197;-63
2021/09/20 02:05:19;;;;;;;0.40;0.27;;;13.70;1.00;;;;;;4995497;28;20197;-66
2021/09/20 02:07:45;;;;;;;0.30;0.20;;;13.70;1.00;;;;;;4995580;28;20191;-65
2021/09/20 02:10:15;;;;;;;0.30;0.20;;;13.60;1.00;;;;;;4995160;28;20187;-65
2021/09/20 02:12:41;;;;;;;0.30;0.20;;;13.50;1.00;;;;;;4995089;28;20297;-65
2021/09/20 02:15:07;;;;;;;0.30;0.10;;;13.60;1.00;;;;;;4995353;28;20597;-66
2021/09/20 02:17:33;;;;;;;0.30;0.20;;;13.40;1.00;;;;;;4995096;28;20628;-64
2021/09/20 02:20:00;;;;;;;0.40;0.20;;;13.20;1.00;;;;;;4995016;28;20175;-63
2021/09/20 02:22:26;;;;;;;0.30;0.20;;;13.20;1.00;;;;;;4994122;28;20438;-66
2021/09/20 02:24:52;;;;;;;0.30;0.10;;;13.10;1.00;;;;;;4995069;28;20190;-63
2021/09/20 02:27:18;;;;;;;0.30;0.20;;;13.10;1.00;;;;;;4994960;28;20437;-63
2021/09/20 02:29:43;;;;;;;0.30;0.20;;;13.20;1.00;;;;;;4994703;28;20237;-63
2021/09/20 02:32:09;;;;;;;0.30;0.20;;;13.20;1.00;;;;;;4994889;28;20218;-63
2021/09/20 02:34:34;;;;;;;0.30;0.10;;;13.20;1.00;;;;;;4994926;28;20179;-64
2021/09/20 02:37:00;;;;;;;0.30;0.10;;;13.30;1.00;;;;;;4994797;28;20179;-63
2021/09/20 02:39:26;;;;;;;0.30;0.20;;;13.40;1.00;;;;;;4993752;28;20555;-65
2021/09/20 02:41:52;;;;;;;0.30;0.20;;;13.40;1.00;;;;;;4994819;28;20182;-66
2021/09/20 02:44:17;;;;;;;0.30;0.20;;;13.60;1.00;;;;;;4994458;28;20584;-64
2021/09/20 02:46:43;;;;;;;0.30;0.20;;;13.90;1.00;;;;;;4993860;28;20187;-64
2021/09/20 02:49:08;;;;;;;0.30;0.20;;;13.80;99.90;;;;;;4994465;28;20230;-65
2021/09/20 02:51:34;;;;;;;0.30;0.10;;;13.70;99.90;;;;;;4993638;28;20544;-66
2021/09/20 02:53:59;;;;;;;0.40;0.30;;;13.70;99.90;;;;;;4994672;28;20282;-65
2021/09/20 02:56:25;;;;;;;0.30;0.20;;;13.80;99.90;;;;;;4994460;28;20183;-65
2021/09/20 02:58:51;;;;;;;0.30;0.20;;;14.00;99.90;;;;;;4994302;28;20183;-65
2021/09/20 03:01:16;;;;;;;0.30;0.10;;;13.60;99.90;;;;;;4994512;28;20198;-65
2021/09/20 03:03:42;;;;;;;0.30;0.20;;;13.80;99.90;;;;;;4994573;28;20190;-63
2021/09/20 03:06:07;;;;;;;0.30;0.20;;;13.80;99.90;;;;;;4994445;28;20182;-66
2021/09/20 03:08:33;;;;;;;0.30;0.17;;;13.90;99.90;;;;;;4994418;28;20194;-66
2021/09/20 03:10:58;;;;;;;0.30;0.20;;;13.90;99.90;;;;;;4994308;28;20182;-66
2021/09/20 03:13:24;;;;;;;0.30;0.20;;;14.00;99.90;;;;;;4993295;28;20632;-66
2021/09/20 03:15:50;;;;;;;0.30;0.20;;;14.10;99.90;;;;;;4994332;28;20171;-67
2021/09/20 03:18:15;;;;;;;0.50;0.50;;;14.00;8.60;;;;;;4994038;28;20620;-64
2021/09/20 03:20:41;;;;;;;0.77;0.53;;;13.90;99.90;;;;;;4998121;28;20191;-67
2021/09/20 03:23:07;;;;;;;0.30;0.10;;;14.00;56.50;;;;;;4994506;28;20755;-64
2021/09/20 03:25:32;;;;;;;0.30;0.20;;;13.90;99.30;;;;;;4994110;28;20590;-65
2021/09/20 03:27:58;;;;;;;0.40;0.20;;;14.10;99.90;;;;;;4994025;28;20445;-66
2021/09/20 03:30:25;;;;;;;0.30;0.20;;;13.80;99.90;;;;;;4994171;28;20380;-67
2021/09/20 03:32:53;;;;;;;0.30;0.20;;;13.70;99.90;;;;;;4993592;28;20211;-67
2021/09/20 03:35:19;;;;;;;0.30;0.20;;;13.80;99.90;;;;;;4993823;28;20663;-67
2021/09/20 03:37:46;;;;;;;0.30;0.10;;;13.80;99.90;;;;;;4994223;28;20170;-64
2021/09/20 03:40:14;;;;;;;0.30;0.20;;;13.80;99.90;;;;;;4993953;28;20712;-67
2021/09/20 03:42:40;;;;;;;0.30;0.20;;;13.70;99.90;;;;;;4994105;28;20198;-66
2021/09/20 03:45:07;;;;;;;0.30;0.20;;;13.50;99.90;;;;;;4994417;28;20183;-65
2021/09/20 03:47:32;;;;;;;0.30;0.20;;;13.70;99.90;;;;;;4994099;28;20835;-63
2021/09/20 03:49:58;;;;;;;0.30;0.20;;;13.90;99.90;;;;;;4994031;28;20191;-63
2021/09/20 03:52:25;;;;;;;0.30;0.20;;;13.90;99.90;;;;;;4994086;28;20301;-63
2021/09/20 03:54:50;;;;;;;0.50;0.38;;;13.60;99.90;;;;;;4993928;28;20171;-63
2021/09/20 03:57:16;;;;;;;0.30;0.10;;;13.50;99.90;;;;;;4995742;28;20171;-63
2021/09/20 03:59:41;;;;;;;0.30;0.20;;;13.20;1.00;;;;;;4997730;28;20175;-64
2021/09/20 04:02:07;;;;;;;0.30;0.20;;;13.10;1.00;;;;;;4996572;28;20186;-63
2021/09/20 04:04:32;;;;;;;0.30;0.10;;;13.30;1.00;;;;;;4997746;28;20643;-62
2021/09/20 04:07:01;;;;;;;0.30;0.10;;;13.50;1.00;;;;;;4997948;28;20178;-63
2021/09/20 04:09:26;;;;;;;0.30;0.20;;;13.60;99.90;;;;;;4996481;28;20182;-62
2021/09/20 04:11:52;;;;;;;0.30;0.20;;;13.10;99.90;;;;;;4997503;28;20550;-62
2021/09/20 04:14:17;;;;;;;0.30;0.10;;;13.40;1.00;;;;;;4997487;28;20237;-62
2021/09/20 04:16:43;;;;;;;0.30;0.20;;;13.40;1.00;;;;;;4997370;28;20175;-62
2021/09/20 04:19:08;;;;;;;0.30;0.20;;;13.60;99.90;;;;;;4997211;28;20179;-63
2021/09/20 04:21:34;;;;;;;0.40;0.20;;;13.50;99.90;;;;;;4997561;28;20186;-63
2021/09/20 04:24:00;;;;;;;0.30;0.20;;;13.30;99.90;;;;;;4996372;28;20186;-63
2021/09/20 04:26:25;;;;;;;0.30;0.20;;;13.30;99.90;;;;;;4997360;28;20186;-63
2021/09/20 04:28:51;;;;;;;0.30;0.10;;;13.50;99.90;;;;;;4997015;28;20187;-63
2021/09/20 04:31:16;;;;;;;0.30;0.20;;;13.60;99.90;;;;;;4997241;28;20664;-65
2021/09/20 04:33:42;;;;;;;0.30;0.20;;;13.50;99.90;;;;;;4996981;28;20301;-63
2021/09/20 04:36:08;;;;;;;0.30;0.10;;;13.40;99.90;;;;;;4997329;28;20244;-63
2021/09/20 04:38:33;;;;;;;0.30;0.20;;;13.60;99.90;;;;;;4996911;28;20266;-64
2021/09/20 04:40:59;;;;;;;0.30;0.20;;;13.50;99.90;;;;;;4997026;28;20179;-63
2021/09/20 04:43:24;;;;;;;0.30;0.20;;;13.80;99.90;;;;;;4996951;28;20191;-63
2021/09/20 04:45:50;;;;;;;0.30;0.10;;;13.80;99.90;;;;;;4996997;28;20611;-65
2021/09/20 04:48:15;;;;;;;0.30;0.20;;;13.70;99.90;;;;;;4996480;28;20178;-63
2021/09/20 04:50:44;;;;;;;0.30;0.20;;;13.40;99.90;;;;;;4997249;28;20190;-65
2021/09/20 04:53:10;;;;;;;0.30;0.20;;;13.30;99.90;;;;;;4995957;28;20224;-64
2021/09/20 04:55:36;;;;;;;0.40;0.22;;;13.10;99.90;;;;;;4997026;28;20214;-62
2021/09/20 04:58:06;;;;;;;0.30;0.20;;;13.00;99.90;;;;;;4996678;28;20191;-62
2021/09/20 05:00:32;;;;;;;0.30;0.20;;;12.80;99.90;;;;;;4996652;28;20177;-62
2021/09/20 05:02:58;;;;;;;0.30;0.20;;;13.10;1.00;;;;;;4996645;28;20223;-62
2021/09/20 05:05:23;;;;;;;0.30;0.20;;;13.20;99.90;;;;;;4996785;28;20189;-62
2021/09/20 05:07:49;;;;;;;0.30;0.20;;;13.00;99.90;;;;;;4995753;28;20262;-62
2021/09/20 05:10:15;;;;;;;0.30;0.10;;;13.00;99.90;;;;;;4995128;28;20241;-63
2021/09/20 05:12:41;;;;;;;0.30;0.20;;;12.90;99.90;;;;;;4996596;28;20466;-66
2021/09/20 05:15:11;;;;;;;0.30;0.20;;;12.90;1.00;;;;;;4995436;28;20190;-65
2021/09/20 05:17:37;;;;;;;0.65;0.30;;;12.90;1.00;;;;;;4996103;28;20606;-64
2021/09/20 05:20:05;;;;;;;0.30;0.20;;;12.50;1.00;;;;;;4996202;28;20233;-64
2021/09/20 05:22:31;;;;;;;0.30;0.20;;;12.50;1.00;;;;;;4996951;28;20214;-66
2021/09/20 05:24:56;;;;;;;0.30;0.20;;;12.70;1.00;;;;;;4995931;28;20515;-66
2021/09/20 05:27:22;;;;;;;0.57;0.57;;;12.90;1.00;;;;;;4995573;28;20277;-66
2021/09/20 05:29:48;;;;;;;0.30;0.20;;;13.00;1.00;;;;;;4995894;28;20182;-66
2021/09/20 05:32:13;;;;;;;0.37;0.30;;;13.10;1.00;;;;;;4995828;28;20704;-66
2021/09/20 05:34:39;;;;;;;0.30;0.17;;;13.30;99.90;;;;;;4995862;28;20756;-66
2021/09/20 05:37:04;;;;;;;0.30;0.20;;;13.30;99.90;;;;;;4994611;28;20240;-66
2021/09/20 05:39:33;;;;;;;0.30;0.20;;;13.30;99.90;;;;;;4995271;28;20183;-66
2021/09/20 05:41:58;;;;;;;0.30;0.20;;;13.40;99.90;;;;;;4995326;28;20265;-66
2021/09/20 05:44:24;;;;;;;0.30;0.20;;;13.50;99.90;;;;;;4995785;28;20334;-65
2021/09/20 05:46:49;;;;;;;0.30;0.20;;;13.40;99.90;;;;;;4994673;28;20191;-64
2021/09/20 05:49:15;;;;;;;0.30;0.20;;;13.60;99.90;;;;;;4988239;28;20285;-64
2021/09/20 05:51:41;;;;;;;0.30;0.20;;;13.60;4.50;;;;;;4995365;28;20252;-64
2021/09/20 05:54:08;;;;;;;0.30;0.10;;;13.40;1.00;;;;;;4995279;28;20189;-64
2021/09/20 05:56:33;;;;;;;0.30;0.20;;;13.70;44.30;;;;;;4995231;28;20236;-64
2021/09/20 05:58:59;;;;;;;0.30;0.20;;;13.90;1.00;;;;;;4995204;28;20186;-64
2021/09/20 06:01:25;;;;;;;0.30;0.20;;;14.00;1.00;;;;;;4995427;28;20976;-64
2021/09/20 06:03:50;;;;;;;0.30;0.20;;;14.00;99.90;;;;;;4995012;28;20270;-64
2021/09/20 06:06:16;;;;;;;0.30;0.20;;;13.90;1.00;;;;;;4995689;28;20183;-64
2021/09/20 06:08:41;;;;;;;0.30;0.20;;;13.70;1.00;;;;;;4995679;28;20181;-64
2021/09/20 06:11:07;;;;;;;0.30;0.20;;;13.80;99.90;;;;;;4995840;28;20179;-64
2021/09/20 06:13:32;;;;;;;0.30;0.20;;;14.00;1.00;;;;;;4995654;28;20580;-63
2021/09/20 06:15:58;;;;;;;0.30;0.20;;;14.20;1.00;;;;;;4995273;28;20238;-64
2021/09/20 06:18:23;;;;;;;0.40;0.20;;;14.30;15.20;;;;;;4995108;28;20182;-63
2021/09/20 06:20:49;;;;;;;0.40;0.20;;;14.20;99.90;;;;;;4993001;28;20195;-63
2021/09/20 06:23:14;;;;;;;0.40;0.30;;;14.30;90.60;;;;;;4988870;28;20237;-63
2021/09/20 06:25:42;;;;;;;0.30;0.20;;;14.00;1.00;;;;;;4993541;28;20210;-63
2021/09/20 06:28:08;;;;;;;0.30;0.17;;;13.70;99.90;;;;;;4988140;28;20199;-63
2021/09/20 06:30:33;;;;;;;0.40;0.20;;;13.80;1.00;;;;;;5004279;28;20193;-63
2021/09/20 06:32:59;;;;;;;0.30;0.20;;;13.80;99.90;;;;;;5014620;28;20205;-63
2021/09/20 06:35:25;;;;;;;0.40;0.20;;;13.90;99.90;;;;;;5014281;28;20175;-63
2021/09/20 06:37:50;;;;;;;0.40;0.20;;;14.30;99.90;;;;;;4997989;28;20186;-63
2021/09/20 06:40:16;;;;;;;0.30;0.20;;;14.00;1.00;;;;;;5011153;28;20566;-62
2021/09/20 06:42:42;;;;;;;0.40;0.20;;;13.70;1.00;;;;;;5004509;28;20191;-63
2021/09/20 06:45:08;;;;;;;0.30;0.20;;;13.80;99.90;;;;;;4991554;28;20238;-63
2021/09/20 06:47:34;;;;;;;0.30;0.20;;;14.00;51.30;;;;;;4996476;28;20433;-63
2021/09/20 06:50:00;;;;;;;0.40;0.40;;;14.20;1.00;;;;;;4996676;28;20225;-64
2021/09/20 06:52:25;;;;;;;0.30;0.20;;;14.40;99.90;;;;;;4990645;28;20211;-64
2021/09/20 06:54:51;;;;;;;0.30;0.20;;;14.40;99.90;;;;;;5001503;28;20244;-64
2021/09/20 06:57:17;;;;;;;0.38;0.20;;;14.70;1.00;;;;;;4996400;28;20195;-65
2021/09/20 06:59:42;;;;;;;0.37;0.20;;;15.00;99.90;;;;;;4994068;28;20269;-65
2021/09/20 07:02:08;;;;;;;0.40;0.20;;;14.90;1.00;;;;;;4994052;28;20183;-65
2021/09/20 07:04:33;;;;;;;0.43;0.37;;;15.10;1.00;;;;;;4994085;28;20178;-65
2021/09/20 07:06:59;;;;;;;0.50;0.40;;;15.10;99.90;;;;;;4994198;28;20183;-65
2021/09/20 07:09:25;;;;;;;0.40;0.20;;;15.30;1.00;;;;;;4983414;28;20179;-66
2021/09/20 07:11:50;;;;;;;0.40;0.20;;;15.20;1.00;;;;;;4992418;28;20213;-63
2021/09/20 07:14:16;;;;;;;0.40;0.10;;;15.00;99.90;;;;;;4993716;28;20179;-64
2021/09/20 07:16:42;;;;;;;0.40;0.20;;;15.30;99.90;;;;;;4993818;28;20190;-64
2021/09/20 07:19:08;;;;;;;0.40;0.20;;;15.50;4.90;;;;;;4993676;28;20579;-64
2021/09/20 07:21:33;;;;;;;0.40;0.20;;;15.70;99.90;;;;;;4993787;28;20500;-63
2021/09/20 07:23:59;;;;;;;0.50;0.30;;;16.00;99.90;;;;;;4987711;28;20549;-63
2021/09/20 07:26:27;;;;;;;0.40;0.20;;;15.60;49.30;;;;;;4993763;28;20265;-63
2021/09/20 07:28:54;;;;;;;0.40;0.17;;;15.30;99.90;;;;;;4993640;28;20214;-64
2021/09/20 07:31:20;;;;;;;0.40;0.20;;;15.50;1.00;;;;;;4994386;28;20234;-64
2021/09/20 07:33:47;;;;;;;0.40;0.20;;;15.50;99.90;;;;;;4997765;28;20215;-64
2021/09/20 07:36:13;;;;;;;0.40;0.20;;;15.20;1.00;;;;;;4998451;28;20583;-64
2021/09/20 07:38:38;;;;;;;1.27;0.40;;;15.40;1.00;;;;;;4996785;28;20174;-63
2021/09/20 07:41:05;;;;;;;0.40;0.20;;;15.50;1.00;;;;;;4996845;28;20179;-66
2021/09/20 07:43:30;;;;;;;0.40;0.10;;;15.00;99.90;;;;;;4987472;28;20233;-64
2021/09/20 07:45:56;;;;;;;0.40;0.20;;;15.30;1.00;;;;;;4997806;28;20214;-65
2021/09/20 07:48:22;;;;;;;0.40;0.20;;;15.30;1.00;;;;;;4997784;28;20217;-66
2021/09/20 07:50:48;;;;;;;0.40;0.20;;;15.80;99.90;;;;;;4997493;28;20194;-66
2021/09/20 07:53:14;;;;;;;0.40;0.10;;;16.20;1.00;;;;;;4984229;28;20727;-64
2021/09/20 07:55:40;;;;;;;0.40;0.20;;;16.50;1.00;;;;;;4997806;28;20261;-64
2021/09/20 07:58:07;;;;;;;0.40;0.10;;;16.80;99.90;;;;;;4997642;28;20252;-64
2021/09/20 08:00:36;;;;;;;0.40;0.20;;;16.20;99.90;;;;;;4997026;28;20452;-63
2021/09/20 08:03:06;;;;;;;0.40;0.20;;;15.90;99.90;;;;;;4997514;28;20237;-64
2021/09/20 08:05:33;;;;;;;0.40;0.20;;;16.10;99.90;;;;;;4996750;28;20499;-64
2021/09/20 08:07:58;;;;;;;0.40;0.20;;;16.50;99.90;;;;;;4996569;28;20433;-63
2021/09/20 08:10:24;;;;;;;0.40;0.20;;;17.00;99.90;;;;;;4997007;28;20777;-64
2021/09/20 08:12:50;;;;;;;0.40;0.20;;;17.00;92.60;;;;;;4997427;28;20211;-63
2021/09/20 08:15:15;;;;;;;0.40;0.10;;;16.80;84.10;;;;;;4997321;28;20179;-63
2021/09/20 08:17:41;;;;;;;0.40;0.20;;;15.90;99.90;;;;;;4996971;28;20509;-64
2021/09/20 08:20:08;;;;;;;0.50;0.40;;;15.90;1.00;;;;;;4997130;28;20183;-63
2021/09/20 08:22:34;;;;;;;0.40;0.20;;;15.80;99.90;;;;;;4997183;28;20191;-63
2021/09/20 08:25:01;;;;;;;0.60;0.43;;;16.30;1.00;;;;;;4997470;28;20182;-64
2021/09/20 08:27:27;;;;;;;0.40;0.20;;;16.40;99.90;;;;;;4997055;28;20691;-65
2021/09/20 08:29:52;;;;;;;0.40;0.20;;;16.20;99.90;;;;;;4997434;28;20442;-64
2021/09/20 08:32:19;;;;;;;0.40;0.20;;;16.50;99.90;;;;;;4997146;28;20797;-63
2021/09/20 08:34:45;;;;;;;0.40;0.20;;;16.70;99.90;;;;;;4996135;28;20206;-64
2021/09/20 08:37:11;;;;;;;0.40;0.17;;;16.40;99.90;;;;;;4996767;28;20468;-66
2021/09/20 08:39:37;;;;;;;0.70;0.57;;;17.00;99.90;;;;;;4996743;28;20480;-66
2021/09/20 08:42:03;;;;;;;0.70;0.63;;;16.50;99.90;;;;;;4997112;28;20194;-65
2021/09/20 08:44:28;;;;;;;0.40;0.20;;;16.50;99.90;;;;;;4996835;28;20895;-66
2021/09/20 08:46:55;;;;;;;0.40;0.20;;;16.90;99.90;;;;;;4996711;28;20434;-65
2021/09/20 08:49:24;;;;;;;0.40;0.20;;;16.80;99.90;;;;;;4996299;28;20664;-66
2021/09/20 08:51:54;;;;;;;0.40;0.20;;;17.20;82.10;;;;;;4996749;28;20535;-66
2021/09/20 08:54:22;;;;;;;0.40;0.20;;;17.10;99.90;;;;;;4996653;28;20457;-66
2021/09/20 08:56:48;;;;;;;0.60;0.50;;;16.70;99.90;;;;;;4996441;28;20430;-66
2021/09/20 08:59:13;;;;;;;0.40;0.20;;;16.30;99.90;;;;;;4996591;28;20977;-66
2021/09/20 09:01:42;;;;;;;0.40;0.20;;;16.30;99.90;;;;;;4996539;28;20516;-66
2021/09/20 09:04:34;;;;;;;0.50;0.20;;;16.60;99.90;;;;;;4996305;28;20249;-66
2021/09/20 09:07:09;;;;;;;0.43;0.25;;;16.50;99.90;;;;;;4996640;28;20183;-66
2021/09/20 09:09:38;;;;;;;0.50;0.50;;;16.50;99.90;;;;;;4996373;28;20175;-63
2021/09/20 09:12:25;;;;;;;0.40;0.20;;;16.30;99.90;;;;;;4996386;28;20269;-63
2021/09/20 09:14:57;;;;;;;1.02;0.85;;;16.40;99.90;;;;;;4996386;28;20422;-63
2021/09/20 09:17:33;;;;;;;0.40;0.20;;;16.30;99.90;;;;;;4995248;28;20712;-64
2021/09/20 09:20:12;;;;;;;0.73;0.73;;;16.40;1.00;;;;;;4995312;28;20194;-63
2021/09/20 09:22:59;;;;;;;0.40;0.20;;;16.50;99.90;;;;;;4996112;28;20437;-64
2021/09/20 09:25:38;;;;;;;0.40;0.20;;;16.70;99.90;;;;;;4996028;28;20210;-63
2021/09/20 09:28:15;;;;;;;0.40;0.20;;;16.90;99.90;;;;;;4996037;28;20440;-63
2021/09/20 09:30:44;;;;;;;0.40;0.20;;;17.10;99.90;;;;;;4996114;28;20800;-63
2021/09/20 09:33:13;;;;;;;0.40;0.20;;;17.60;99.90;;;;;;4996046;28;20951;-63
2021/09/20 09:35:43;;;;;;;1.00;0.60;;;17.60;99.90;;;;;;4995969;28;20418;-63
2021/09/20 09:38:09;;;;;;;0.40;0.20;;;17.10;99.90;;;;;;4995949;28;20433;-63
2021/09/20 09:41:02;;;;;;;0.40;0.17;;;16.70;1.00;;;;;;4995786;28;20421;-64
2021/09/20 09:43:36;;;;;;;0.40;0.20;;;17.10;1.00;;;;;;4995072;28;20202;-65
2021/09/20 09:46:18;;;;;;;0.60;0.30;;;16.90;99.90;;;;;;4995729;28;20430;-65
2021/09/20 09:48:44;;;;;;;0.40;0.10;;;17.00;99.90;;;;;;4995537;28;20190;-65
2021/09/20 09:51:11;;;;;;;0.40;0.20;;;17.40;99.90;;;;;;4995728;28;20445;-66
2021/09/20 09:53:45;;;;;;;0.60;0.60;;;17.80;99.90;;;;;;4994454;28;20481;-66
2021/09/20 09:56:14;;;;;;;0.40;0.17;;;17.60;99.90;;;;;;4994191;28;20516;-66
2021/09/20 09:58:59;;;;;;;0.40;0.30;;;16.90;1.00;;;;;;4995135;28;20492;-67
2021/09/20 10:01:37;;;;;;;1.67;1.57;;;16.20;99.90;;;;;;4995452;28;20456;-67
2021/09/20 10:04:07;;;;;;;1.90;0.53;;;16.50;23.00;;;;;;4995252;28;20422;-67
2021/09/20 10:06:42;;;;;;;0.40;0.10;;;16.20;99.90;;;;;;4994864;28;20485;-66
2021/09/20 10:09:09;;;;;;;0.40;0.40;;;16.70;1.00;;;;;;4995160;28;20417;-65
2021/09/20 10:11:35;;;;;;;1.73;1.63;;;17.10;1.00;;;;;;4995606;28;20505;-65
2021/09/20 10:14:01;;;;;;;0.60;0.40;;;16.80;1.00;;;;;;4995775;28;20422;-65
2021/09/20 10:16:28;;;;;;;0.40;0.10;;;17.20;1.00;;;;;;4995295;28;20430;-65
2021/09/20 10:18:54;;;;;;;0.40;0.10;;;17.20;1.00;;;;;;4994033;28;20430;-65
2021/09/20 10:21:20;;;;;;;0.70;0.50;;;17.00;1.00;;;;;;4995057;28;20453;-67
2021/09/20 10:23:47;;;;;;;1.00;0.50;;;17.40;99.90;;;;;;4994184;28;20869;-67
2021/09/20 10:26:13;;;;;;;0.50;0.30;;;17.50;99.90;;;;;;4995140;28;20525;-67
2021/09/20 10:28:39;;;;;;;1.23;1.13;;;16.50;1.00;;;;;;4994641;28;20465;-68
2021/09/20 10:31:04;;;;;;;2.10;2.00;;;16.50;1.00;;;;;;4994883;28;20426;-65
2021/09/20 10:33:30;;;;;;;0.53;0.43;;;17.10;99.90;;;;;;4994692;28;20477;-65
2021/09/20 10:35:57;;;;;;;1.07;0.57;;;17.30;99.90;;;;;;4994888;28;20187;-66
2021/09/20 10:38:24;;;;;;;0.40;0.20;;;17.10;1.00;;;;;;4994617;28;20518;-67
2021/09/20 10:41:20;;;;;;;1.13;0.60;;;17.40;99.90;;;;;;4994817;28;20490;-68
2021/09/20 10:44:07;;;;;;;0.40;0.20;;;18.00;99.90;;;;;;4993580;28;20758;-67
2021/09/20 10:46:35;;;;;;;0.40;0.20;;;17.60;99.90;;;;;;4983387;28;20438;-66
2021/09/20 10:49:03;;;;;;;0.40;0.10;;;17.40;99.90;;;;;;4986619;28;20446;-64
2021/09/20 10:51:38;;;;;;;0.50;0.20;;;17.50;1.00;;;;;;4984382;28;20736;-66
2021/09/20 10:54:10;;;;;;;0.40;0.20;;;17.80;99.90;;;;;;4980800;28;20480;-65
2021/09/20 10:56:37;;;;;;;0.90;0.90;;;16.70;99.90;;;;;;4990135;28;20425;-64
2021/09/20 10:59:02;;;;;;;1.13;0.83;;;16.80;1.00;;;;;;4972168;28;20636;-64
2021/09/20 11:01:30;;;;;;;1.80;0.63;;;16.30;1.00;;;;;;4984658;28;20475;-63
2021/09/20 11:03:59;;;;;;;0.70;0.40;;;16.30;93.00;;;;;;4994366;28;20245;-63
2021/09/20 11:06:37;;;;;;;0.50;0.40;;;16.10;99.90;;;;;;4993439;28;20426;-63
2021/09/20 11:09:06;;;;;;;0.40;0.20;;;16.40;1.00;;;;;;4993882;28;20449;-63
2021/09/20 11:11:41;;;;;;;0.40;0.20;;;16.80;1.00;;;;;;4994474;28;20492;-65
2021/09/20 11:14:12;;;;;;;0.40;0.10;;;17.10;99.90;;;;;;4993579;28;20441;-65
2021/09/20 11:17:02;;;;;;;0.40;0.20;;;17.20;1.00;;;;;;4994023;28;20505;-65
2021/09/20 11:19:33;;;;;;;0.40;0.20;;;17.00;1.00;;;;;;4993876;28;20422;-65
2021/09/20 11:22:11;;;;;;;0.40;0.20;;;16.90;99.90;;;;;;4994480;28;20495;-65
2021/09/20 11:24:45;;;;;;;0.50;0.40;;;16.80;1.00;;;;;;4994278;28;20422;-64
2021/09/20 11:27:28;;;;;;;1.00;0.40;;;16.60;1.00;;;;;;4994098;28;20585;-65
2021/09/20 11:30:12;;;;;;;0.40;0.20;;;16.70;1.00;;;;;;4993909;28;20456;-65
2021/09/20 11:32:45;;;;;;;0.40;0.20;;;17.20;99.90;;;;;;4993043;28;20812;-65
2021/09/20 11:35:11;;;;;;;0.40;0.20;;;18.10;99.90;;;;;;4993144;28;20433;-64
2021/09/20 11:37:36;;;;;;;0.50;0.30;;;18.30;1.00;;;;;;4993626;28;20440;-64
2021/09/20 11:40:02;;;;;;;0.40;0.20;;;18.40;1.00;;;;;;4993857;28;20434;-64
2021/09/20 11:42:36;;;;;;;0.47;0.20;;;18.50;1.00;;;;;;4993146;28;20183;-64
2021/09/20 11:45:09;;;;;;;0.40;0.20;;;18.30;1.00;;;;;;4993950;28;20206;-64
2021/09/20 11:47:38;;;;;;;0.40;0.20;;;18.20;1.00;;;;;;4993753;28;20429;-64
2021/09/20 11:50:13;;;;;;;0.40;0.20;;;18.20;1.00;;;;;;4993686;28;20507;-64
2021/09/20 11:52:50;;;;;;;0.93;0.93;;;18.80;1.00;;;;;;4994037;28;20469;-64
2021/09/20 11:55:18;;;;;;;0.40;0.20;;;17.10;99.90;;;;;;4993855;28;20515;-64
2021/09/20 11:57:46;;;;;;;0.40;0.20;;;16.90;99.90;;;;;;4993664;28;20514;-64
2021/09/20 12:00:13;;;;;;;0.40;0.20;;;17.10;63.70;;;;;;4993504;28;20801;-64
2021/09/20 12:02:43;;;;;;;0.40;0.20;;;17.70;19.00;;;;;;4993590;28;20438;-64
2021/09/20 12:05:12;;;;;;;3.30;1.03;;;17.70;11.00;;;;;;4993820;28;20437;-64
2021/09/20 12:07:45;;;;;;;0.40;0.20;;;17.20;99.90;;;;;;4993659;28;20488;-64
2021/09/20 12:10:12;;;;;;;0.40;0.20;;;16.10;99.90;;;;;;4993886;28;20434;-63
2021/09/20 12:12:38;;;;;;;0.40;0.20;;;16.50;1.00;;;;;;4993780;28;20465;-64
2021/09/20 12:15:14;;;;;;;0.40;0.20;;;16.90;99.90;;;;;;4992838;28;20434;-64
2021/09/20 12:18:03;;;;;;;2.00;1.90;;;17.30;99.90;;;;;;4994659;28;20429;-67
2021/09/20 12:20:43;;;;;;;0.50;0.30;;;17.50;99.90;;;;;;4997058;28;20729;-64
2021/09/20 12:23:24;;;;;;;0.50;0.30;;;16.80;99.90;;;;;;4997540;28;20807;-64
2021/09/20 12:25:51;;;;;;;0.50;0.30;;;16.70;99.90;;;;;;4997461;28;20421;-63
2021/09/20 12:28:30;;;;;;;1.70;1.07;;;16.10;1.00;;;;;;4996947;28;20937;-63
2021/09/20 12:31:03;;;;;;;0.40;0.10;;;16.00;1.00;;;;;;4996313;28;20828;-63
2021/09/20 12:33:47;;;;;;;0.50;0.30;;;16.50;1.00;;;;;;4997252;28;20473;-63
2021/09/20 12:36:22;;;;;;;0.43;0.20;;;16.20;1.00;;;;;;4997264;28;20871;-65
2021/09/20 12:39:11;;;;;;;0.40;0.20;;;16.10;1.00;;;;;;4997112;28;20421;-64
2021/09/20 12:41:54;;;;;;;0.40;0.20;;;16.10;1.00;;;;;;4997170;28;20452;-64
2021/09/20 12:44:32;;;;;;;0.47;0.30;;;16.30;1.00;;;;;;4997038;28;20422;-66
2021/09/20 12:47:11;;;;;;;0.40;0.20;;;16.00;1.00;;;;;;4997190;28;20445;-65
2021/09/20 12:49:37;;;;;;;1.00;1.00;;;15.80;1.00;;;;;;4996946;28;20457;-62
2021/09/20 12:52:19;;;;;;;0.50;0.30;;;16.10;1.00;;;;;;4996961;28;20476;-63
2021/09/20 12:54:49;;;;;;;0.43;0.27;;;15.70;1.00;;;;;;4996911;28;20454;-64